sensor_id;sensor_type;location;lat;lon;timestamp;pressure;altitude;pressure_sealevel;temperature;humidity
49040;BME280;36811;49.732;13.402;2023-01-30T00:01:26;98123.09;;;-1.43;76.81
49040;BME280;36811;49.732;13.402;2023-01-30T00:03:53;98132.66;;;-1.36;76.92
49040;BME280;36811;49.732;13.402;2023-01-30T00:06:19;98126.47;;;-1.35;76.96
49040;BME280;36811;49.732;13.402;2023-01-30T00:08:45;98119.44;;;-1.34;76.92
49040;BME280;36811;49.732;13.402;2023-01-30T00:11:12;98107.41;;;-1.35;76.41
49040;BME280;36811;49.732;13.402;2023-01-30T00:13:39;98116.00;;;-1.26;76.00
49040;BME280;36811;49.732;13.402;2023-01-30T00:16:06;98113.69;;;-1.21;76.71
49040;BME280;36811;49.732;13.402;2023-01-30T00:18:35;98105.00;;;-1.14;76.49
49040;BME280;36811;49.732;13.402;2023-01-30T00:21:03;98106.25;;;-1.10;76.17
49040;BME280;36811;49.732;13.402;2023-01-30T00:23:33;98089.09;;;-1.04;75.82
49040;BME280;36811;49.732;13.402;2023-01-30T00:25:59;98095.56;;;-1.00;75.61
49040;BME280;36811;49.732;13.402;2023-01-30T00:28:25;98099.91;;;-0.93;75.74
49040;BME280;36811;49.732;13.402;2023-01-30T00:30:52;98083.72;;;-0.88;75.44
49040;BME280;36811;49.732;13.402;2023-01-30T00:33:20;98074.38;;;-0.83;75.07
49040;BME280;36811;49.732;13.402;2023-01-30T00:35:48;98045.38;;;-0.88;75.59
49040;BME280;36811;49.732;13.402;2023-01-30T00:38:16;98051.13;;;-0.92;75.58
49040;BME280;36811;49.732;13.402;2023-01-30T00:40:42;98039.78;;;-0.99;76.04
49040;BME280;36811;49.732;13.402;2023-01-30T00:43:25;98039.78;;;-0.99;75.99
49040;BME280;36811;49.732;13.402;2023-01-30T00:46:18;98046.31;;;-1.03;76.32
49040;BME280;36811;49.732;13.402;2023-01-30T00:49:05;98031.66;;;-1.04;76.06
49040;BME280;36811;49.732;13.402;2023-01-30T00:51:31;98038.50;;;-1.03;76.49
49040;BME280;36811;49.732;13.402;2023-01-30T00:53:57;98041.09;;;-1.03;76.48
49040;BME280;36811;49.732;13.402;2023-01-30T00:56:22;98031.31;;;-1.01;76.46
49040;BME280;36811;49.732;13.402;2023-01-30T00:58:48;98020.88;;;-1.01;76.52
49040;BME280;36811;49.732;13.402;2023-01-30T01:01:13;98024.53;;;-1.10;76.86
49040;BME280;36811;49.732;13.402;2023-01-30T01:03:39;98027.47;;;-1.13;77.02
49040;BME280;36811;49.732;13.402;2023-01-30T01:06:05;98032.34;;;-1.10;77.08
49040;BME280;36811;49.732;13.402;2023-01-30T01:08:30;98031.38;;;-1.09;76.47
49040;BME280;36811;49.732;13.402;2023-01-30T01:10:56;98029.59;;;-1.09;76.69
49040;BME280;36811;49.732;13.402;2023-01-30T01:13:21;98030.56;;;-1.10;76.58
49040;BME280;36811;49.732;13.402;2023-01-30T01:15:49;98041.34;;;-1.13;76.70
49040;BME280;36811;49.732;13.402;2023-01-30T01:18:14;98029.47;;;-1.15;76.64
49040;BME280;36811;49.732;13.402;2023-01-30T01:20:40;98029.03;;;-1.19;76.86
49040;BME280;36811;49.732;13.402;2023-01-30T01:23:06;98027.56;;;-1.21;76.59
49040;BME280;36811;49.732;13.402;2023-01-30T01:25:31;98023.03;;;-1.27;77.17
49040;BME280;36811;49.732;13.402;2023-01-30T01:27:57;98018.34;;;-1.32;77.54
49040;BME280;36811;49.732;13.402;2023-01-30T01:30:22;98034.97;;;-1.33;77.17
49040;BME280;36811;49.732;13.402;2023-01-30T01:32:48;98038.75;;;-1.36;77.17
49040;BME280;36811;49.732;13.402;2023-01-30T01:35:14;98044.25;;;-1.31;77.47
49040;BME280;36811;49.732;13.402;2023-01-30T01:37:39;98040.00;;;-1.32;76.98
49040;BME280;36811;49.732;13.402;2023-01-30T01:40:06;98046.88;;;-1.31;76.56
49040;BME280;36811;49.732;13.402;2023-01-30T01:42:50;98042.47;;;-1.30;77.40
49040;BME280;36811;49.732;13.402;2023-01-30T01:45:22;98040.38;;;-1.35;77.12
49040;BME280;36811;49.732;13.402;2023-01-30T01:48:03;98040.53;;;-1.36;77.44
49040;BME280;36811;49.732;13.402;2023-01-30T01:50:47;98049.38;;;-1.37;76.89
49040;BME280;36811;49.732;13.402;2023-01-30T01:53:19;98042.34;;;-1.37;77.15
49040;BME280;36811;49.732;13.402;2023-01-30T01:55:48;98054.41;;;-1.36;77.34
49040;BME280;36811;49.732;13.402;2023-01-30T01:58:25;98047.53;;;-1.37;77.51
49040;BME280;36811;49.732;13.402;2023-01-30T02:00:54;98057.00;;;-1.36;77.28
49040;BME280;36811;49.732;13.402;2023-01-30T02:03:24;98057.50;;;-1.32;76.94
49040;BME280;36811;49.732;13.402;2023-01-30T02:05:54;98055.66;;;-1.32;77.08
49040;BME280;36811;49.732;13.402;2023-01-30T02:08:35;98050.94;;;-1.28;77.00
49040;BME280;36811;49.732;13.402;2023-01-30T02:13:38;98039.81;;;-1.22;76.75
49040;BME280;36811;49.732;13.402;2023-01-30T02:16:06;98019.91;;;-1.23;76.65
49040;BME280;36811;49.732;13.402;2023-01-30T02:18:34;97994.63;;;-1.22;76.63
49040;BME280;36811;49.732;13.402;2023-01-30T02:33:14;97993.28;;;-1.18;75.83
49040;BME280;36811;49.732;13.402;2023-01-30T02:41:46;97987.34;;;-1.12;74.80
49040;BME280;36811;49.732;13.402;2023-01-30T02:44:34;97995.00;;;-1.11;74.82
49040;BME280;36811;49.732;13.402;2023-01-30T02:47:12;97971.34;;;-1.09;74.89
49040;BME280;36811;49.732;13.402;2023-01-30T02:50:01;97961.25;;;-1.12;74.07
49040;BME280;36811;49.732;13.402;2023-01-30T02:52:29;97958.03;;;-1.14;74.30
49040;BME280;36811;49.732;13.402;2023-01-30T02:54:55;97963.06;;;-1.13;74.01
49040;BME280;36811;49.732;13.402;2023-01-30T02:57:23;97962.50;;;-1.08;74.12
49040;BME280;36811;49.732;13.402;2023-01-30T02:59:57;97926.78;;;-1.08;74.35
49040;BME280;36811;49.732;13.402;2023-01-30T03:08:41;97878.22;;;-1.09;73.77
49040;BME280;36811;49.732;13.402;2023-01-30T03:11:11;97875.06;;;-1.04;73.86
49040;BME280;36811;49.732;13.402;2023-01-30T03:14:10;97858.78;;;-1.06;73.58
49040;BME280;36811;49.732;13.402;2023-01-30T03:16:40;97857.34;;;-1.09;74.26
49040;BME280;36811;49.732;13.402;2023-01-30T03:19:10;97853.72;;;-1.08;73.55
49040;BME280;36811;49.732;13.402;2023-01-30T03:21:44;97878.66;;;-1.05;73.68
49040;BME280;36811;49.732;13.402;2023-01-30T03:24:11;97908.25;;;-0.98;73.33
49040;BME280;36811;49.732;13.402;2023-01-30T03:26:41;97928.50;;;-0.86;73.62
49040;BME280;36811;49.732;13.402;2023-01-30T03:29:08;97946.63;;;-0.84;73.35
49040;BME280;36811;49.732;13.402;2023-01-30T03:31:34;97909.59;;;-0.73;73.50
49040;BME280;36811;49.732;13.402;2023-01-30T03:33:59;97913.50;;;-0.69;73.67
49040;BME280;36811;49.732;13.402;2023-01-30T03:36:26;97924.56;;;-0.67;73.11
49040;BME280;36811;49.732;13.402;2023-01-30T03:38:52;97928.25;;;-0.61;73.12
49040;BME280;36811;49.732;13.402;2023-01-30T03:41:17;97923.72;;;-0.53;72.98
49040;BME280;36811;49.732;13.402;2023-01-30T03:43:43;97934.81;;;-0.51;73.10
49040;BME280;36811;49.732;13.402;2023-01-30T03:46:08;97914.44;;;-0.55;72.53
49040;BME280;36811;49.732;13.402;2023-01-30T03:48:34;97923.56;;;-0.51;72.56
49040;BME280;36811;49.732;13.402;2023-01-30T03:51:00;97901.50;;;-0.49;72.77
49040;BME280;36811;49.732;13.402;2023-01-30T03:53:25;97902.81;;;-0.53;73.11
49040;BME280;36811;49.732;13.402;2023-01-30T03:55:51;97874.09;;;-0.53;73.20
49040;BME280;36811;49.732;13.402;2023-01-30T03:58:16;97868.34;;;-0.48;73.00
49040;BME280;36811;49.732;13.402;2023-01-30T04:00:42;97860.66;;;-0.50;73.22
49040;BME280;36811;49.732;13.402;2023-01-30T04:03:08;97856.53;;;-0.44;73.65
49040;BME280;36811;49.732;13.402;2023-01-30T04:05:33;97855.34;;;-0.42;73.48
49040;BME280;36811;49.732;13.402;2023-01-30T04:07:59;97838.69;;;-0.41;73.06
49040;BME280;36811;49.732;13.402;2023-01-30T04:10:25;97839.31;;;-0.39;73.13
49040;BME280;36811;49.732;13.402;2023-01-30T04:12:51;97835.06;;;-0.40;73.77
49040;BME280;36811;49.732;13.402;2023-01-30T04:15:17;97844.69;;;-0.40;73.90
49040;BME280;36811;49.732;13.402;2023-01-30T04:17:43;97843.25;;;-0.43;73.63
49040;BME280;36811;49.732;13.402;2023-01-30T04:20:09;97837.06;;;-0.42;73.82
49040;BME280;36811;49.732;13.402;2023-01-30T04:22:35;97819.22;;;-0.38;73.51
49040;BME280;36811;49.732;13.402;2023-01-30T04:25:01;97800.09;;;-0.39;74.07
49040;BME280;36811;49.732;13.402;2023-01-30T04:27:26;97801.09;;;-0.40;74.02
49040;BME280;36811;49.732;13.402;2023-01-30T04:29:52;97776.97;;;-0.42;74.32
49040;BME280;36811;49.732;13.402;2023-01-30T04:32:17;97771.38;;;-0.39;74.30
49040;BME280;36811;49.732;13.402;2023-01-30T04:34:43;97770.19;;;-0.36;74.48
49040;BME280;36811;49.732;13.402;2023-01-30T04:37:10;97771.41;;;-0.32;74.20
49040;BME280;36811;49.732;13.402;2023-01-30T04:39:36;97771.06;;;-0.29;74.41
49040;BME280;36811;49.732;13.402;2023-01-30T04:42:02;97786.84;;;-0.16;74.77
49040;BME280;36811;49.732;13.402;2023-01-30T04:44:28;97781.63;;;-0.16;74.48
49040;BME280;36811;49.732;13.402;2023-01-30T04:46:54;97771.19;;;-0.16;74.60
49040;BME280;36811;49.732;13.402;2023-01-30T04:49:20;97762.72;;;-0.18;74.76
49040;BME280;36811;49.732;13.402;2023-01-30T04:51:46;97782.81;;;-0.19;75.45
49040;BME280;36811;49.732;13.402;2023-01-30T04:54:11;97782.44;;;-0.16;75.51
49040;BME280;36811;49.732;13.402;2023-01-30T04:56:37;97769.63;;;-0.11;75.34
49040;BME280;36811;49.732;13.402;2023-01-30T04:59:02;97769.19;;;-0.14;75.03
49040;BME280;36811;49.732;13.402;2023-01-30T05:01:34;97771.59;;;-0.13;75.41
49040;BME280;36811;49.732;13.402;2023-01-30T05:04:00;97766.00;;;-0.10;75.49
49040;BME280;36811;49.732;13.402;2023-01-30T05:06:27;97777.25;;;-0.09;75.97
49040;BME280;36811;49.732;13.402;2023-01-30T05:08:54;97778.25;;;-0.10;75.69
49040;BME280;36811;49.732;13.402;2023-01-30T05:11:22;97776.28;;;-0.08;76.04
49040;BME280;36811;49.732;13.402;2023-01-30T05:13:48;97779.75;;;-0.01;75.38
49040;BME280;36811;49.732;13.402;2023-01-30T05:16:15;97776.69;;;-0.05;76.41
49040;BME280;36811;49.732;13.402;2023-01-30T05:18:42;97775.72;;;-0.04;77.25
49040;BME280;36811;49.732;13.402;2023-01-30T05:21:10;97765.84;;;-0.02;77.20
49040;BME280;36811;49.732;13.402;2023-01-30T05:23:36;97758.75;;;-0.08;78.55
49040;BME280;36811;49.732;13.402;2023-01-30T05:26:03;97764.38;;;-0.11;79.59
49040;BME280;36811;49.732;13.402;2023-01-30T05:28:29;97763.13;;;-0.15;80.20
49040;BME280;36811;49.732;13.402;2023-01-30T05:31:04;97757.28;;;-0.17;80.59
49040;BME280;36811;49.732;13.402;2023-01-30T05:33:29;97746.84;;;-0.17;80.96
49040;BME280;36811;49.732;13.402;2023-01-30T05:35:55;97749.00;;;-0.20;81.72
49040;BME280;36811;49.732;13.402;2023-01-30T05:38:22;97728.66;;;-0.25;81.68
49040;BME280;36811;49.732;13.402;2023-01-30T05:41:00;97748.34;;;-0.29;82.44
49040;BME280;36811;49.732;13.402;2023-01-30T05:43:26;97714.78;;;-0.25;82.83
49040;BME280;36811;49.732;13.402;2023-01-30T05:45:54;97710.38;;;-0.25;83.08
49040;BME280;36811;49.732;13.402;2023-01-30T05:48:21;97705.59;;;-0.21;82.79
49040;BME280;36811;49.732;13.402;2023-01-30T05:51:13;97694.75;;;-0.18;82.64
49040;BME280;36811;49.732;13.402;2023-01-30T05:53:40;97695.38;;;-0.16;82.67
49040;BME280;36811;49.732;13.402;2023-01-30T05:56:05;97702.03;;;-0.14;82.36
49040;BME280;36811;49.732;13.402;2023-01-30T05:58:32;97695.13;;;-0.21;82.51
49040;BME280;36811;49.732;13.402;2023-01-30T06:01:06;97699.91;;;-0.25;83.30
49040;BME280;36811;49.732;13.402;2023-01-30T06:03:34;97694.13;;;-0.20;83.28
49040;BME280;36811;49.732;13.402;2023-01-30T06:06:04;97699.78;;;-0.17;82.50
49040;BME280;36811;49.732;13.402;2023-01-30T06:08:30;97706.06;;;-0.11;82.39
49040;BME280;36811;49.732;13.402;2023-01-30T06:11:08;97699.28;;;-0.06;82.50
49040;BME280;36811;49.732;13.402;2023-01-30T06:13:35;97686.25;;;0.01;82.18
49040;BME280;36811;49.732;13.402;2023-01-30T06:16:00;97675.78;;;0.01;81.53
49040;BME280;36811;49.732;13.402;2023-01-30T06:18:27;97689.28;;;0.05;81.67
49040;BME280;36811;49.732;13.402;2023-01-30T06:20:53;97679.81;;;0.04;81.67
49040;BME280;36811;49.732;13.402;2023-01-30T06:23:20;97687.72;;;0.10;81.55
49040;BME280;36811;49.732;13.402;2023-01-30T06:25:49;97681.34;;;0.19;81.27
49040;BME280;36811;49.732;13.402;2023-01-30T06:28:16;97678.50;;;0.21;80.57
49040;BME280;36811;49.732;13.402;2023-01-30T06:30:42;97678.13;;;0.24;80.01
49040;BME280;36811;49.732;13.402;2023-01-30T06:33:09;97665.84;;;0.18;80.12
49040;BME280;36811;49.732;13.402;2023-01-30T06:35:38;97664.00;;;0.18;79.59
49040;BME280;36811;49.732;13.402;2023-01-30T06:38:04;97674.53;;;0.25;79.50
49040;BME280;36811;49.732;13.402;2023-01-30T06:40:31;97669.91;;;0.27;79.92
49040;BME280;36811;49.732;13.402;2023-01-30T06:42:56;97664.28;;;0.30;79.25
49040;BME280;36811;49.732;13.402;2023-01-30T06:45:22;97660.50;;;0.39;78.85
49040;BME280;36811;49.732;13.402;2023-01-30T06:47:53;97662.31;;;0.38;79.30
49040;BME280;36811;49.732;13.402;2023-01-30T06:50:22;97658.69;;;0.39;78.47
49040;BME280;36811;49.732;13.402;2023-01-30T06:52:49;97660.34;;;0.47;78.87
49040;BME280;36811;49.732;13.402;2023-01-30T06:55:17;97657.34;;;0.50;78.19
49040;BME280;36811;49.732;13.402;2023-01-30T06:57:44;97659.16;;;0.49;78.25
49040;BME280;36811;49.732;13.402;2023-01-30T07:00:16;97656.97;;;0.53;78.45
49040;BME280;36811;49.732;13.402;2023-01-30T07:02:43;97653.16;;;0.55;78.33
49040;BME280;36811;49.732;13.402;2023-01-30T07:05:10;97648.09;;;0.54;78.07
49040;BME280;36811;49.732;13.402;2023-01-30T07:07:36;97651.53;;;0.61;77.83
49040;BME280;36811;49.732;13.402;2023-01-30T07:10:03;97647.72;;;0.63;77.66
49040;BME280;36811;49.732;13.402;2023-01-30T07:12:30;97639.69;;;0.65;77.88
49040;BME280;36811;49.732;13.402;2023-01-30T07:14:55;97649.38;;;0.71;77.83
49040;BME280;36811;49.732;13.402;2023-01-30T07:17:22;97643.75;;;0.74;77.43
49040;BME280;36811;49.732;13.402;2023-01-30T07:19:47;97644.16;;;0.84;77.78
49040;BME280;36811;49.732;13.402;2023-01-30T07:22:13;97636.97;;;0.93;77.31
49040;BME280;36811;49.732;13.402;2023-01-30T07:24:40;97643.41;;;0.97;77.18
49040;BME280;36811;49.732;13.402;2023-01-30T07:27:11;97642.63;;;1.03;77.02
49040;BME280;36811;49.732;13.402;2023-01-30T07:29:38;97634.97;;;1.08;76.96
49040;BME280;36811;49.732;13.402;2023-01-30T07:32:05;97635.56;;;1.10;76.94
49040;BME280;36811;49.732;13.402;2023-01-30T07:34:32;97624.88;;;1.11;76.96
49040;BME280;36811;49.732;13.402;2023-01-30T07:36:58;97627.50;;;1.11;77.50
49040;BME280;36811;49.732;13.402;2023-01-30T07:39:24;97623.69;;;1.20;77.08
49040;BME280;36811;49.732;13.402;2023-01-30T07:41:50;97618.28;;;1.28;76.54
49040;BME280;36811;49.732;13.402;2023-01-30T07:44:16;97614.44;;;1.31;76.67
49040;BME280;36811;49.732;13.402;2023-01-30T07:46:41;97622.50;;;1.29;76.79
49040;BME280;36811;49.732;13.402;2023-01-30T07:49:08;97636.44;;;1.37;76.73
49040;BME280;36811;49.732;13.402;2023-01-30T07:51:35;97632.19;;;1.36;76.81
49040;BME280;36811;49.732;13.402;2023-01-30T07:54:01;97621.50;;;1.44;76.45
49040;BME280;36811;49.732;13.402;2023-01-30T07:56:29;97632.59;;;1.46;76.18
49040;BME280;36811;49.732;13.402;2023-01-30T07:58:55;97630.97;;;1.45;76.55
49040;BME280;36811;49.732;13.402;2023-01-30T08:01:21;97621.91;;;1.41;76.47
49040;BME280;36811;49.732;13.402;2023-01-30T08:03:47;97608.59;;;1.42;75.86
49040;BME280;36811;49.732;13.402;2023-01-30T08:06:14;97606.19;;;1.34;76.63
49040;BME280;36811;49.732;13.402;2023-01-30T08:08:41;97610.00;;;1.45;77.02
49040;BME280;36811;49.732;13.402;2023-01-30T08:11:08;97631.16;;;1.50;76.79
49040;BME280;36811;49.732;13.402;2023-01-30T08:13:34;97618.50;;;1.47;76.23
49040;BME280;36811;49.732;13.402;2023-01-30T08:16:04;97615.44;;;1.50;76.38
49040;BME280;36811;49.732;13.402;2023-01-30T08:18:32;97612.81;;;1.50;75.99
49040;BME280;36811;49.732;13.402;2023-01-30T08:21:00;97605.19;;;1.48;76.24
49040;BME280;36811;49.732;13.402;2023-01-30T08:23:26;97623.31;;;1.43;76.18
49040;BME280;36811;49.732;13.402;2023-01-30T08:25:56;97615.25;;;1.38;76.69
49040;BME280;36811;49.732;13.402;2023-01-30T08:28:23;97617.47;;;1.35;76.38
49040;BME280;36811;49.732;13.402;2023-01-30T08:30:50;97610.03;;;1.32;76.68
49040;BME280;36811;49.732;13.402;2023-01-30T08:33:20;97591.25;;;1.35;77.19
49040;BME280;36811;49.732;13.402;2023-01-30T08:35:47;97604.97;;;1.30;77.52
49040;BME280;36811;49.732;13.402;2023-01-30T08:38:13;97624.50;;;1.27;77.46
49040;BME280;36811;49.732;13.402;2023-01-30T08:40:40;97624.53;;;1.34;77.44
49040;BME280;36811;49.732;13.402;2023-01-30T08:43:06;97624.09;;;1.37;78.02
49040;BME280;36811;49.732;13.402;2023-01-30T08:45:32;97625.53;;;1.33;78.82
49040;BME280;36811;49.732;13.402;2023-01-30T08:47:59;97607.97;;;1.27;79.64
49040;BME280;36811;49.732;13.402;2023-01-30T08:50:26;97614.25;;;1.26;80.58
49040;BME280;36811;49.732;13.402;2023-01-30T08:52:52;97610.59;;;1.20;81.08
49040;BME280;36811;49.732;13.402;2023-01-30T08:55:18;97603.16;;;1.17;81.04
49040;BME280;36811;49.732;13.402;2023-01-30T08:57:46;97605.16;;;1.15;81.58
49040;BME280;36811;49.732;13.402;2023-01-30T09:00:13;97605.34;;;1.14;81.50
49040;BME280;36811;49.732;13.402;2023-01-30T09:02:39;97612.19;;;1.21;80.29
49040;BME280;36811;49.732;13.402;2023-01-30T09:05:05;97617.84;;;1.25;80.47
49040;BME280;36811;49.732;13.402;2023-01-30T09:07:32;97605.19;;;1.28;80.24
49040;BME280;36811;49.732;13.402;2023-01-30T09:09:58;97607.81;;;1.28;80.64
49040;BME280;36811;49.732;13.402;2023-01-30T09:12:23;97599.94;;;1.28;81.29
49040;BME280;36811;49.732;13.402;2023-01-30T09:14:49;97593.06;;;1.27;81.29
49040;BME280;36811;49.732;13.402;2023-01-30T09:17:17;97600.31;;;1.19;81.87
49040;BME280;36811;49.732;13.402;2023-01-30T09:19:43;97602.75;;;1.20;82.36
49040;BME280;36811;49.732;13.402;2023-01-30T09:22:09;97610.22;;;1.23;82.40
49040;BME280;36811;49.732;13.402;2023-01-30T09:24:35;97610.41;;;1.22;82.90
49040;BME280;36811;49.732;13.402;2023-01-30T09:27:00;97607.19;;;1.20;83.22
49040;BME280;36811;49.732;13.402;2023-01-30T09:29:27;97607.97;;;1.27;82.82
49040;BME280;36811;49.732;13.402;2023-01-30T09:31:54;97600.53;;;1.31;82.59
49040;BME280;36811;49.732;13.402;2023-01-30T09:34:23;97604.78;;;1.38;82.45
49040;BME280;36811;49.732;13.402;2023-01-30T09:36:57;97599.94;;;1.42;81.75
49040;BME280;36811;49.732;13.402;2023-01-30T09:39:28;97599.13;;;1.48;81.44
49040;BME280;36811;49.732;13.402;2023-01-30T09:53:15;97587.56;;;1.88;80.49
49040;BME280;36811;49.732;13.402;2023-01-30T09:55:43;97580.28;;;2.03;80.44
49040;BME280;36811;49.732;13.402;2023-01-30T09:58:18;97575.63;;;2.05;79.80
49040;BME280;36811;49.732;13.402;2023-01-30T10:00:45;97579.66;;;2.08;79.64
49040;BME280;36811;49.732;13.402;2023-01-30T10:03:16;97571.16;;;2.19;79.68
49040;BME280;36811;49.732;13.402;2023-01-30T10:05:49;97576.34;;;2.25;78.76
49040;BME280;36811;49.732;13.402;2023-01-30T10:17:35;97559.84;;;2.63;77.90
49040;BME280;36811;49.732;13.402;2023-01-30T10:20:11;97566.91;;;2.62;77.85
49040;BME280;36811;49.732;13.402;2023-01-30T10:28:05;97540.44;;;2.64;77.02
49040;BME280;36811;49.732;13.402;2023-01-30T10:30:34;97548.19;;;2.52;77.73
49040;BME280;36811;49.732;13.402;2023-01-30T10:33:12;97557.28;;;2.49;78.12
49040;BME280;36811;49.732;13.402;2023-01-30T10:35:41;97555.09;;;2.46;78.67
49040;BME280;36811;49.732;13.402;2023-01-30T10:38:32;97558.13;;;2.43;78.66
49040;BME280;36811;49.732;13.402;2023-01-30T10:44:12;97554.31;;;2.33;79.47
49040;BME280;36811;49.732;13.402;2023-01-30T10:47:03;97546.69;;;2.31;79.57
49040;BME280;36811;49.732;13.402;2023-01-30T10:49:50;97547.31;;;2.20;80.50
49040;BME280;36811;49.732;13.402;2023-01-30T10:52:26;97543.66;;;2.28;80.21
49040;BME280;36811;49.732;13.402;2023-01-30T10:58:00;97532.97;;;2.29;79.69
49040;BME280;36811;49.732;13.402;2023-01-30T11:00:37;97530.97;;;2.25;79.63
49040;BME280;36811;49.732;13.402;2023-01-30T11:05:58;97522.59;;;2.41;79.20
49040;BME280;36811;49.732;13.402;2023-01-30T11:08:31;97524.81;;;2.44;79.76
49040;BME280;36811;49.732;13.402;2023-01-30T11:11:01;97509.22;;;2.49;79.28
49040;BME280;36811;49.732;13.402;2023-01-30T11:13:45;97503.41;;;2.47;79.92
49040;BME280;36811;49.732;13.402;2023-01-30T11:16:11;97497.81;;;2.37;79.31
49040;BME280;36811;49.732;13.402;2023-01-30T11:18:46;97503.06;;;2.30;80.09
49040;BME280;36811;49.732;13.402;2023-01-30T11:21:24;97509.34;;;2.29;80.72
49040;BME280;36811;49.732;13.402;2023-01-30T11:23:53;97486.72;;;2.28;80.29
49040;BME280;36811;49.732;13.402;2023-01-30T11:26:23;97476.47;;;2.20;80.29
49040;BME280;36811;49.732;13.402;2023-01-30T11:28:49;97477.16;;;2.09;80.84
49040;BME280;36811;49.732;13.402;2023-01-30T11:31:21;97477.97;;;2.10;80.95
49040;BME280;36811;49.732;13.402;2023-01-30T11:34:00;97473.09;;;2.13;80.95
49040;BME280;36811;49.732;13.402;2023-01-30T11:36:31;97494.66;;;2.22;81.51
49040;BME280;36811;49.732;13.402;2023-01-30T11:39:19;97485.91;;;2.34;81.08
49040;BME280;36811;49.732;13.402;2023-01-30T11:44:29;97474.09;;;2.50;80.86
49040;BME280;36811;49.732;13.402;2023-01-30T11:46:59;97471.41;;;2.63;80.11
49040;BME280;36811;49.732;13.402;2023-01-30T11:49:32;97477.19;;;2.72;80.37
49040;BME280;36811;49.732;13.402;2023-01-30T11:52:00;97466.25;;;2.75;79.41
49040;BME280;36811;49.732;13.402;2023-01-30T11:54:31;97473.13;;;2.76;79.52
49040;BME280;36811;49.732;13.402;2023-01-30T11:57:02;97472.75;;;2.72;79.57
49040;BME280;36811;49.732;13.402;2023-01-30T12:02:31;97453.50;;;2.78;79.50
49040;BME280;36811;49.732;13.402;2023-01-30T12:05:00;97458.97;;;2.77;79.51
49040;BME280;36811;49.732;13.402;2023-01-30T12:07:29;97449.84;;;2.79;79.24
49040;BME280;36811;49.732;13.402;2023-01-30T12:09:57;97418.66;;;2.89;78.46
49040;BME280;36811;49.732;13.402;2023-01-30T12:15:02;97415.53;;;2.99;77.72
49040;BME280;36811;49.732;13.402;2023-01-30T12:17:39;97397.16;;;2.99;77.76
49040;BME280;36811;49.732;13.402;2023-01-30T12:26:05;97397.59;;;3.14;76.62
49040;BME280;36811;49.732;13.402;2023-01-30T12:28:40;97414.56;;;3.18;77.39
49040;BME280;36811;49.732;13.402;2023-01-30T12:31:21;97410.25;;;3.24;77.14
49040;BME280;36811;49.732;13.402;2023-01-30T12:33:49;97412.16;;;3.35;76.46
49040;BME280;36811;49.732;13.402;2023-01-30T12:53:30;97385.19;;;3.57;75.53
49040;BME280;36811;49.732;13.402;2023-01-30T13:01:43;97400.25;;;3.68;74.96
49040;BME280;36811;49.732;13.402;2023-01-30T13:04:28;97406.94;;;3.64;76.15
49040;BME280;36811;49.732;13.402;2023-01-30T13:12:47;97399.72;;;3.78;75.21
49040;BME280;36811;49.732;13.402;2023-01-30T13:15:34;97408.19;;;3.80;73.87
49040;BME280;36811;49.732;13.402;2023-01-30T13:18:24;97403.59;;;3.75;73.79
49040;BME280;36811;49.732;13.402;2023-01-30T13:21:14;97402.66;;;3.70;73.17
49040;BME280;36811;49.732;13.402;2023-01-30T13:24:09;97414.25;;;3.62;73.69
49040;BME280;36811;49.732;13.402;2023-01-30T13:26:40;97420.19;;;3.58;73.48
49040;BME280;36811;49.732;13.402;2023-01-30T13:29:14;97414.22;;;3.51;73.90
49040;BME280;36811;49.732;13.402;2023-01-30T13:31:54;97400.53;;;3.60;73.15
49040;BME280;36811;49.732;13.402;2023-01-30T13:34:31;97408.00;;;3.63;73.84
49040;BME280;36811;49.732;13.402;2023-01-30T13:37:12;97401.50;;;3.66;72.97
49040;BME280;36811;49.732;13.402;2023-01-30T13:45:33;97397.03;;;3.66;73.30
49040;BME280;36811;49.732;13.402;2023-01-30T13:56:40;97411.91;;;3.72;74.23
49040;BME280;36811;49.732;13.402;2023-01-30T14:02:15;97409.81;;;3.63;73.58
49040;BME280;36811;49.732;13.402;2023-01-30T14:04:46;97415.75;;;3.58;74.34
49040;BME280;36811;49.732;13.402;2023-01-30T14:07:23;97415.16;;;3.56;74.67
49040;BME280;36811;49.732;13.402;2023-01-30T14:12:51;97419.38;;;3.57;74.17
49040;BME280;36811;49.732;13.402;2023-01-30T14:15:26;97418.56;;;3.57;74.75
49040;BME280;36811;49.732;13.402;2023-01-30T14:20:45;97412.00;;;3.48;75.69
49040;BME280;36811;49.732;13.402;2023-01-30T14:23:21;97419.38;;;3.39;75.67
49040;BME280;36811;49.732;13.402;2023-01-30T14:25:51;97425.88;;;3.37;76.33
49040;BME280;36811;49.732;13.402;2023-01-30T14:35:47;97422.16;;;3.62;75.48
49040;BME280;36811;49.732;13.402;2023-01-30T14:38:21;97423.34;;;3.66;74.60
49040;BME280;36811;49.732;13.402;2023-01-30T14:56:57;97426.16;;;3.65;74.36
49040;BME280;36811;49.732;13.402;2023-01-30T15:07:30;97459.78;;;3.81;73.71
49040;BME280;36811;49.732;13.402;2023-01-30T15:10:05;97461.88;;;3.72;73.85
49040;BME280;36811;49.732;13.402;2023-01-30T15:12:53;97456.28;;;3.69;74.17
49040;BME280;36811;49.732;13.402;2023-01-30T15:15:43;97464.94;;;3.69;74.25
49040;BME280;36811;49.732;13.402;2023-01-30T15:29:27;97455.84;;;3.54;74.97
49040;BME280;36811;49.732;13.402;2023-01-30T15:32:00;97476.13;;;3.47;75.01
49040;BME280;36811;49.732;13.402;2023-01-30T15:34:29;97478.53;;;3.48;75.71
49040;BME280;36811;49.732;13.402;2023-01-30T15:36:56;97460.34;;;3.47;75.70
49040;BME280;36811;49.732;13.402;2023-01-30T15:39:27;97477.06;;;3.52;75.92
49040;BME280;36811;49.732;13.402;2023-01-30T15:42:00;97470.44;;;3.50;76.06
49040;BME280;36811;49.732;13.402;2023-01-30T15:44:51;97471.00;;;3.52;75.77
49040;BME280;36811;49.732;13.402;2023-01-30T15:50:20;97479.06;;;3.39;77.01
49040;BME280;36811;49.732;13.402;2023-01-30T15:52:48;97491.44;;;3.32;77.25
49040;BME280;36811;49.732;13.402;2023-01-30T15:55:25;97498.53;;;3.31;77.30
49040;BME280;36811;49.732;13.402;2023-01-30T15:58:10;97483.38;;;3.27;78.03
49040;BME280;36811;49.732;13.402;2023-01-30T16:00:46;97488.72;;;3.20;78.20
49040;BME280;36811;49.732;13.402;2023-01-30T16:03:20;97490.59;;;3.13;78.17